sensor_id;sensor_type;location;lat;lon;timestamp;temperature;humidity
69901;DHT22;57183;50.930;5.406;2023-11-19T00:00:46;13.20;99.90
69901;DHT22;57183;50.930;5.406;2023-11-19T00:03:12;13.20;99.90
69901;DHT22;57183;50.930;5.406;2023-11-19T00:05:39;13.20;99.90
69901;DHT22;57183;50.930;5.406;2023-11-19T00:08:04;13.20;99.90
69901;DHT22;57183;50.930;5.406;2023-11-19T00:10:31;13.20;99.90
69901;DHT22;57183;50.930;5.406;2023-11-19T00:12:57;13.20;99.90
69901;DHT22;57183;50.930;5.406;2023-11-19T00:15:23;13.20;99.90
69901;DHT22;57183;50.930;5.406;2023-11-19T00:17:52;13.20;99.90
69901;DHT22;57183;50.930;5.406;2023-11-19T00:20:21;13.20;99.90
69901;DHT22;57183;50.930;5.406;2023-11-19T00:22:53;13.20;99.90
69901;DHT22;57183;50.930;5.406;2023-11-19T00:25:21;13.20;99.90
69901;DHT22;57183;50.930;5.406;2023-11-19T00:27:47;13.20;99.90
69901;DHT22;57183;50.930;5.406;2023-11-19T00:30:13;13.20;99.90
69901;DHT22;57183;50.930;5.406;2023-11-19T00:32:40;13.30;99.90
69901;DHT22;57183;50.930;5.406;2023-11-19T00:35:06;13.20;99.90
69901;DHT22;57183;50.930;5.406;2023-11-19T00:37:47;13.30;99.90
69901;DHT22;57183;50.930;5.406;2023-11-19T00:40:14;13.30;99.90
69901;DHT22;57183;50.930;5.406;2023-11-19T00:42:41;13.30;99.90
69901;DHT22;57183;50.930;5.406;2023-11-19T00:45:07;13.30;99.90
69901;DHT22;57183;50.930;5.406;2023-11-19T00:47:35;13.30;99.90
69901;DHT22;57183;50.930;5.406;2023-11-19T00:50:02;13.30;99.90
69901;DHT22;57183;50.930;5.406;2023-11-19T00:52:28;13.40;99.90
69901;DHT22;57183;50.930;5.406;2023-11-19T00:54:53;13.40;99.90
69901;DHT22;57183;50.930;5.406;2023-11-19T00:57:19;13.30;99.90
69901;DHT22;57183;50.930;5.406;2023-11-19T00:59:45;13.40;99.90
69901;DHT22;57183;50.930;5.406;2023-11-19T01:02:10;13.40;99.90
69901;DHT22;57183;50.930;5.406;2023-11-19T01:04:36;13.40;99.90
69901;DHT22;57183;50.930;5.406;2023-11-19T01:07:03;13.40;99.90
69901;DHT22;57183;50.930;5.406;2023-11-19T01:09:32;13.40;99.90
69901;DHT22;57183;50.930;5.406;2023-11-19T01:12:00;13.40;99.90
69901;DHT22;57183;50.930;5.406;2023-11-19T01:14:26;13.50;99.90
69901;DHT22;57183;50.930;5.406;2023-11-19T01:16:52;13.40;99.90
69901;DHT22;57183;50.930;5.406;2023-11-19T01:19:19;13.50;99.90
69901;DHT22;57183;50.930;5.406;2023-11-19T01:21:44;13.50;99.90
69901;DHT22;57183;50.930;5.406;2023-11-19T01:24:10;13.50;99.90
69901;DHT22;57183;50.930;5.406;2023-11-19T01:26:38;13.50;99.90
69901;DHT22;57183;50.930;5.406;2023-11-19T01:29:04;13.50;99.90
69901;DHT22;57183;50.930;5.406;2023-11-19T01:31:30;13.50;99.90
69901;DHT22;57183;50.930;5.406;2023-11-19T01:33:57;13.50;99.90
69901;DHT22;57183;50.930;5.406;2023-11-19T01:36:23;13.50;99.90
69901;DHT22;57183;50.930;5.406;2023-11-19T01:38:49;13.50;99.90
69901;DHT22;57183;50.930;5.406;2023-11-19T01:41:15;13.50;99.90
69901;DHT22;57183;50.930;5.406;2023-11-19T01:43:41;13.60;99.90
69901;DHT22;57183;50.930;5.406;2023-11-19T01:46:07;13.60;99.90
69901;DHT22;57183;50.930;5.406;2023-11-19T01:48:35;13.60;99.90
69901;DHT22;57183;50.930;5.406;2023-11-19T01:51:03;13.60;99.90
69901;DHT22;57183;50.930;5.406;2023-11-19T01:53:30;13.60;99.90
69901;DHT22;57183;50.930;5.406;2023-11-19T01:55:57;13.70;99.90
69901;DHT22;57183;50.930;5.406;2023-11-19T01:58:24;13.70;99.90
69901;DHT22;57183;50.930;5.406;2023-11-19T02:00:50;13.70;99.90
69901;DHT22;57183;50.930;5.406;2023-11-19T02:03:16;13.70;99.90
69901;DHT22;57183;50.930;5.406;2023-11-19T02:05:42;13.70;99.90
69901;DHT22;57183;50.930;5.406;2023-11-19T02:08:08;13.70;99.90
69901;DHT22;57183;50.930;5.406;2023-11-19T02:10:34;13.70;99.90
69901;DHT22;57183;50.930;5.406;2023-11-19T02:13:01;13.70;99.90
69901;DHT22;57183;50.930;5.406;2023-11-19T02:15:30;13.70;99.90
69901;DHT22;57183;50.930;5.406;2023-11-19T02:17:56;13.60;99.90
69901;DHT22;57183;50.930;5.406;2023-11-19T02:20:24;13.50;99.90
69901;DHT22;57183;50.930;5.406;2023-11-19T02:22:51;13.40;99.90
69901;DHT22;57183;50.930;5.406;2023-11-19T02:25:25;13.30;99.90
69901;DHT22;57183;50.930;5.406;2023-11-19T02:28:03;13.30;99.90
69901;DHT22;57183;50.930;5.406;2023-11-19T02:30:30;13.30;99.90
69901;DHT22;57183;50.930;5.406;2023-11-19T02:33:00;13.30;99.90
69901;DHT22;57183;50.930;5.406;2023-11-19T02:35:31;13.30;99.90
69901;DHT22;57183;50.930;5.406;2023-11-19T02:37:58;13.40;99.90
69901;DHT22;57183;50.930;5.406;2023-11-19T02:40:25;13.40;99.90
69901;DHT22;57183;50.930;5.406;2023-11-19T02:42:52;13.40;99.90
69901;DHT22;57183;50.930;5.406;2023-11-19T02:45:18;13.40;99.90
69901;DHT22;57183;50.930;5.406;2023-11-19T02:47:44;13.40;99.90
69901;DHT22;57183;50.930;5.406;2023-11-19T02:50:13;13.40;99.90
69901;DHT22;57183;50.930;5.406;2023-11-19T02:52:42;13.40;99.90
69901;DHT22;57183;50.930;5.406;2023-11-19T02:55:09;13.40;99.90
69901;DHT22;57183;50.930;5.406;2023-11-19T02:57:38;13.30;99.90
69901;DHT22;57183;50.930;5.406;2023-11-19T03:00:07;13.30;99.90
69901;DHT22;57183;50.930;5.406;2023-11-19T03:02:39;13.30;99.90
69901;DHT22;57183;50.930;5.406;2023-11-19T03:05:11;13.30;99.90
69901;DHT22;57183;50.930;5.406;2023-11-19T03:07:41;13.30;99.90
69901;DHT22;57183;50.930;5.406;2023-11-19T03:10:09;13.30;99.90
69901;DHT22;57183;50.930;5.406;2023-11-19T03:12:41;13.20;99.90
69901;DHT22;57183;50.930;5.406;2023-11-19T03:15:10;13.20;99.90
69901;DHT22;57183;50.930;5.406;2023-11-19T03:17:39;13.20;99.90
69901;DHT22;57183;50.930;5.406;2023-11-19T03:20:06;13.10;99.90
69901;DHT22;57183;50.930;5.406;2023-11-19T03:22:37;13.10;99.90
69901;DHT22;57183;50.930;5.406;2023-11-19T03:25:07;13.10;99.90
69901;DHT22;57183;50.930;5.406;2023-11-19T03:27:41;13.00;99.90
69901;DHT22;57183;50.930;5.406;2023-11-19T03:30:10;13.00;99.90
69901;DHT22;57183;50.930;5.406;2023-11-19T03:32:36;13.00;99.90
69901;DHT22;57183;50.930;5.406;2023-11-19T03:35:04;13.00;99.90
69901;DHT22;57183;50.930;5.406;2023-11-19T03:37:33;13.00;99.90
69901;DHT22;57183;50.930;5.406;2023-11-19T03:39:59;12.90;99.90
69901;DHT22;57183;50.930;5.406;2023-11-19T03:42:28;13.00;99.90
69901;DHT22;57183;50.930;5.406;2023-11-19T03:44:56;12.90;99.90
69901;DHT22;57183;50.930;5.406;2023-11-19T03:47:25;12.90;99.90
69901;DHT22;57183;50.930;5.406;2023-11-19T03:49:54;12.90;99.90
69901;DHT22;57183;50.930;5.406;2023-11-19T03:52:20;12.90;99.90
69901;DHT22;57183;50.930;5.406;2023-11-19T03:54:46;13.00;99.90
69901;DHT22;57183;50.930;5.406;2023-11-19T03:57:12;13.00;99.90
69901;DHT22;57183;50.930;5.406;2023-11-19T03:59:47;13.00;99.90
69901;DHT22;57183;50.930;5.406;2023-11-19T04:02:18;12.90;99.90
69901;DHT22;57183;50.930;5.406;2023-11-19T04:04:46;12.90;99.90
69901;DHT22;57183;50.930;5.406;2023-11-19T04:07:16;12.90;99.90
69901;DHT22;57183;50.930;5.406;2023-11-19T04:09:41;12.80;99.90
69901;DHT22;57183;50.930;5.406;2023-11-19T04:12:08;12.80;99.90
69901;DHT22;57183;50.930;5.406;2023-11-19T04:14:36;12.80;99.90
69901;DHT22;57183;50.930;5.406;2023-11-19T04:17:09;12.80;99.90
69901;DHT22;57183;50.930;5.406;2023-11-19T04:19:35;12.70;99.90
69901;DHT22;57183;50.930;5.406;2023-11-19T04:22:00;12.70;99.90
69901;DHT22;57183;50.930;5.406;2023-11-19T04:24:30;12.60;99.90
69901;DHT22;57183;50.930;5.406;2023-11-19T04:26:58;12.70;99.90
69901;DHT22;57183;50.930;5.406;2023-11-19T04:29:24;12.70;99.90
69901;DHT22;57183;50.930;5.406;2023-11-19T04:31:51;12.70;99.90
69901;DHT22;57183;50.930;5.406;2023-11-19T04:34:22;12.60;99.90
69901;DHT22;57183;50.930;5.406;2023-11-19T04:36:51;12.60;99.90
69901;DHT22;57183;50.930;5.406;2023-11-19T04:39:17;12.60;99.90
69901;DHT22;57183;50.930;5.406;2023-11-19T04:41:51;12.60;99.90
69901;DHT22;57183;50.930;5.406;2023-11-19T04:44:20;12.60;99.90
69901;DHT22;57183;50.930;5.406;2023-11-19T04:46:49;12.60;99.90
69901;DHT22;57183;50.930;5.406;2023-11-19T04:49:14;12.60;99.90
69901;DHT22;57183;50.930;5.406;2023-11-19T04:51:41;12.50;99.90
69901;DHT22;57183;50.930;5.406;2023-11-19T04:54:10;12.50;99.90
69901;DHT22;57183;50.930;5.406;2023-11-19T04:56:39;12.50;99.90
69901;DHT22;57183;50.930;5.406;2023-11-19T04:59:08;12.50;99.90
69901;DHT22;57183;50.930;5.406;2023-11-19T05:01:36;12.60;99.90
69901;DHT22;57183;50.930;5.406;2023-11-19T05:04:11;12.60;99.90
69901;DHT22;57183;50.930;5.406;2023-11-19T05:06:40;12.60;99.90
69901;DHT22;57183;50.930;5.406;2023-11-19T05:09:09;12.60;99.90
69901;DHT22;57183;50.930;5.406;2023-11-19T05:11:40;12.60;99.90
69901;DHT22;57183;50.930;5.406;2023-11-19T05:14:06;12.70;99.90
69901;DHT22;57183;50.930;5.406;2023-11-19T05:16:35;12.70;99.90
69901;DHT22;57183;50.930;5.406;2023-11-19T05:19:01;12.70;99.90
69901;DHT22;57183;50.930;5.406;2023-11-19T05:21:32;12.80;99.90
69901;DHT22;57183;50.930;5.406;2023-11-19T05:24:00;12.80;99.90
69901;DHT22;57183;50.930;5.406;2023-11-19T05:26:29;12.80;99.90
69901;DHT22;57183;50.930;5.406;2023-11-19T05:28:55;12.80;99.90
69901;DHT22;57183;50.930;5.406;2023-11-19T05:31:24;12.80;99.90
69901;DHT22;57183;50.930;5.406;2023-11-19T05:33:50;12.80;99.90
69901;DHT22;57183;50.930;5.406;2023-11-19T05:36:17;12.70;99.90
69901;DHT22;57183;50.930;5.406;2023-11-19T05:38:45;12.70;99.90
69901;DHT22;57183;50.930;5.406;2023-11-19T05:41:14;12.60;99.90
69901;DHT22;57183;50.930;5.406;2023-11-19T05:43:43;12.60;99.90
69901;DHT22;57183;50.930;5.406;2023-11-19T05:46:09;12.50;99.90
69901;DHT22;57183;50.930;5.406;2023-11-19T05:48:35;12.50;99.90
69901;DHT22;57183;50.930;5.406;2023-11-19T05:51:01;12.40;99.90
69901;DHT22;57183;50.930;5.406;2023-11-19T05:53:32;12.40;99.90
69901;DHT22;57183;50.930;5.406;2023-11-19T05:56:00;12.40;99.90
69901;DHT22;57183;50.930;5.406;2023-11-19T05:58:29;12.40;99.90
69901;DHT22;57183;50.930;5.406;2023-11-19T06:00:59;12.40;99.90
69901;DHT22;57183;50.930;5.406;2023-11-19T06:03:26;12.30;99.90
69901;DHT22;57183;50.930;5.406;2023-11-19T06:05:55;12.30;99.90
69901;DHT22;57183;50.930;5.406;2023-11-19T06:08:21;12.30;99.90
69901;DHT22;57183;50.930;5.406;2023-11-19T06:10:50;12.20;99.90
69901;DHT22;57183;50.930;5.406;2023-11-19T06:13:19;12.30;99.90
69901;DHT22;57183;50.930;5.406;2023-11-19T06:15:51;12.30;99.90
69901;DHT22;57183;50.930;5.406;2023-11-19T06:18:17;12.20;99.90
69901;DHT22;57183;50.930;5.406;2023-11-19T06:20:51;12.20;99.90
69901;DHT22;57183;50.930;5.406;2023-11-19T06:23:25;12.20;99.90
69901;DHT22;57183;50.930;5.406;2023-11-19T06:25:51;12.20;99.90
69901;DHT22;57183;50.930;5.406;2023-11-19T06:28:17;12.20;99.90
69901;DHT22;57183;50.930;5.406;2023-11-19T06:30:49;12.20;99.90
69901;DHT22;57183;50.930;5.406;2023-11-19T06:33:17;12.20;99.90
69901;DHT22;57183;50.930;5.406;2023-11-19T06:35:46;12.20;99.90
69901;DHT22;57183;50.930;5.406;2023-11-19T06:38:12;12.20;99.90
69901;DHT22;57183;50.930;5.406;2023-11-19T06:40:38;12.10;99.90
69901;DHT22;57183;50.930;5.406;2023-11-19T06:43:06;12.10;99.90
69901;DHT22;57183;50.930;5.406;2023-11-19T06:45:34;12.00;99.90
69901;DHT22;57183;50.930;5.406;2023-11-19T06:48:08;12.00;99.90
69901;DHT22;57183;50.930;5.406;2023-11-19T06:50:37;12.00;99.90
69901;DHT22;57183;50.930;5.406;2023-11-19T06:53:06;12.00;99.90
69901;DHT22;57183;50.930;5.406;2023-11-19T06:55:38;11.90;99.90
69901;DHT22;57183;50.930;5.406;2023-11-19T06:58:05;11.90;99.90
69901;DHT22;57183;50.930;5.406;2023-11-19T07:00:31;11.90;99.90
69901;DHT22;57183;50.930;5.406;2023-11-19T07:03:01;12.00;99.90
69901;DHT22;57183;50.930;5.406;2023-11-19T07:05:29;12.10;99.90
69901;DHT22;57183;50.930;5.406;2023-11-19T07:07:56;12.20;99.90
69901;DHT22;57183;50.930;5.406;2023-11-19T07:10:21;12.20;99.90
69901;DHT22;57183;50.930;5.406;2023-11-19T07:12:47;12.20;99.90
69901;DHT22;57183;50.930;5.406;2023-11-19T07:15:18;12.10;99.90
69901;DHT22;57183;50.930;5.406;2023-11-19T07:17:44;12.10;99.90
69901;DHT22;57183;50.930;5.406;2023-11-19T07:20:15;12.10;99.90
69901;DHT22;57183;50.930;5.406;2023-11-19T07:22:47;12.10;99.90
69901;DHT22;57183;50.930;5.406;2023-11-19T07:25:17;12.10;99.90
69901;DHT22;57183;50.930;5.406;2023-11-19T07:27:43;12.10;99.90
69901;DHT22;57183;50.930;5.406;2023-11-19T07:30:15;12.10;99.90
69901;DHT22;57183;50.930;5.406;2023-11-19T07:32:42;12.10;99.90
69901;DHT22;57183;50.930;5.406;2023-11-19T07:35:08;12.00;99.90
69901;DHT22;57183;50.930;5.406;2023-11-19T07:37:34;12.00;99.90
69901;DHT22;57183;50.930;5.406;2023-11-19T07:40:00;12.00;99.90
69901;DHT22;57183;50.930;5.406;2023-11-19T07:42:26;12.00;99.90
69901;DHT22;57183;50.930;5.406;2023-11-19T07:44:55;12.00;99.90
69901;DHT22;57183;50.930;5.406;2023-11-19T07:47:22;11.90;99.90
69901;DHT22;57183;50.930;5.406;2023-11-19T07:49:50;12.00;99.90
69901;DHT22;57183;50.930;5.406;2023-11-19T07:52:19;12.00;99.90
69901;DHT22;57183;50.930;5.406;2023-11-19T07:54:45;12.00;99.90
69901;DHT22;57183;50.930;5.406;2023-11-19T07:57:16;12.00;99.90
69901;DHT22;57183;50.930;5.406;2023-11-19T07:59:42;12.00;99.90
69901;DHT22;57183;50.930;5.406;2023-11-19T08:02:08;12.00;99.90
69901;DHT22;57183;50.930;5.406;2023-11-19T08:04:34;12.00;99.90
69901;DHT22;57183;50.930;5.406;2023-11-19T08:07:00;12.10;99.90
69901;DHT22;57183;50.930;5.406;2023-11-19T08:09:27;12.10;99.90
69901;DHT22;57183;50.930;5.406;2023-11-19T08:11:56;12.10;99.90
69901;DHT22;57183;50.930;5.406;2023-11-19T08:14:22;12.10;99.90
69901;DHT22;57183;50.930;5.406;2023-11-19T08:16:47;12.10;99.90
69901;DHT22;57183;50.930;5.406;2023-11-19T08:19:16;12.20;99.90
69901;DHT22;57183;50.930;5.406;2023-11-19T08:21:42;12.20;99.90
69901;DHT22;57183;50.930;5.406;2023-11-19T08:24:11;12.20;99.90
69901;DHT22;57183;50.930;5.406;2023-11-19T08:26:38;12.20;99.90
69901;DHT22;57183;50.930;5.406;2023-11-19T08:29:04;12.20;99.90
69901;DHT22;57183;50.930;5.406;2023-11-19T08:31:33;12.30;99.90
69901;DHT22;57183;50.930;5.406;2023-11-19T08:33:59;12.30;99.90
69901;DHT22;57183;50.930;5.406;2023-11-19T08:36:24;12.40;99.90
69901;DHT22;57183;50.930;5.406;2023-11-19T08:38:50;12.50;99.90
69901;DHT22;57183;50.930;5.406;2023-11-19T08:41:21;12.50;99.90
69901;DHT22;57183;50.930;5.406;2023-11-19T08:43:50;12.50;99.90
69901;DHT22;57183;50.930;5.406;2023-11-19T08:46:17;12.60;99.90
69901;DHT22;57183;50.930;5.406;2023-11-19T08:48:43;12.70;99.90
69901;DHT22;57183;50.930;5.406;2023-11-19T08:51:09;12.70;99.90
69901;DHT22;57183;50.930;5.406;2023-11-19T08:53:34;12.70;99.90
69901;DHT22;57183;50.930;5.406;2023-11-19T08:56:00;12.70;99.90
69901;DHT22;57183;50.930;5.406;2023-11-19T08:58:28;12.60;99.90
69901;DHT22;57183;50.930;5.406;2023-11-19T09:00:54;12.70;99.90
69901;DHT22;57183;50.930;5.406;2023-11-19T09:03:20;12.70;99.90
69901;DHT22;57183;50.930;5.406;2023-11-19T09:05:46;12.70;99.90
69901;DHT22;57183;50.930;5.406;2023-11-19T09:08:12;12.70;99.90
69901;DHT22;57183;50.930;5.406;2023-11-19T09:10:38;12.80;99.90
69901;DHT22;57183;50.930;5.406;2023-11-19T09:13:04;12.90;99.90
69901;DHT22;57183;50.930;5.406;2023-11-19T09:15:29;12.80;99.90
69901;DHT22;57183;50.930;5.406;2023-11-19T09:17:55;12.80;99.90
69901;DHT22;57183;50.930;5.406;2023-11-19T09:20:21;12.90;99.90
69901;DHT22;57183;50.930;5.406;2023-11-19T09:22:47;12.90;99.90
69901;DHT22;57183;50.930;5.406;2023-11-19T09:25:14;13.10;99.90
69901;DHT22;57183;50.930;5.406;2023-11-19T09:27:43;13.20;99.90
69901;DHT22;57183;50.930;5.406;2023-11-19T09:30:09;13.20;99.90
69901;DHT22;57183;50.930;5.406;2023-11-19T09:32:35;13.20;99.90
69901;DHT22;57183;50.930;5.406;2023-11-19T09:35:03;13.20;99.90
69901;DHT22;57183;50.930;5.406;2023-11-19T09:37:29;13.10;99.90
69901;DHT22;57183;50.930;5.406;2023-11-19T09:39:55;13.20;99.90
69901;DHT22;57183;50.930;5.406;2023-11-19T09:42:20;13.30;99.90
69901;DHT22;57183;50.930;5.406;2023-11-19T09:44:47;13.30;99.90
69901;DHT22;57183;50.930;5.406;2023-11-19T09:47:14;13.40;99.90
69901;DHT22;57183;50.930;5.406;2023-11-19T09:49:42;13.40;99.90
69901;DHT22;57183;50.930;5.406;2023-11-19T09:52:08;13.40;99.90
69901;DHT22;57183;50.930;5.406;2023-11-19T09:54:34;13.50;99.90
69901;DHT22;57183;50.930;5.406;2023-11-19T09:57:04;13.40;99.90
69901;DHT22;57183;50.930;5.406;2023-11-19T09:59:33;13.00;99.90
69901;DHT22;57183;50.930;5.406;2023-11-19T10:01:59;12.90;99.90
69901;DHT22;57183;50.930;5.406;2023-11-19T10:04:25;12.90;99.90
69901;DHT22;57183;50.930;5.406;2023-11-19T10:06:53;13.00;99.90
69901;DHT22;57183;50.930;5.406;2023-11-19T10:09:19;13.10;99.90
69901;DHT22;57183;50.930;5.406;2023-11-19T10:11:45;13.10;99.90
69901;DHT22;57183;50.930;5.406;2023-11-19T10:14:15;13.20;99.90
69901;DHT22;57183;50.930;5.406;2023-11-19T10:16:41;13.20;99.90
69901;DHT22;57183;50.930;5.406;2023-11-19T10:19:16;13.30;99.90
69901;DHT22;57183;50.930;5.406;2023-11-19T10:21:45;13.40;99.90
69901;DHT22;57183;50.930;5.406;2023-11-19T10:24:11;13.50;99.90
69901;DHT22;57183;50.930;5.406;2023-11-19T10:26:37;13.50;99.90
69901;DHT22;57183;50.930;5.406;2023-11-19T10:29:03;13.50;99.90
69901;DHT22;57183;50.930;5.406;2023-11-19T10:31:29;13.50;99.90
69901;DHT22;57183;50.930;5.406;2023-11-19T10:33:55;13.40;99.90
69901;DHT22;57183;50.930;5.406;2023-11-19T10:36:21;13.50;99.90
69901;DHT22;57183;50.930;5.406;2023-11-19T10:38:56;13.50;99.90
69901;DHT22;57183;50.930;5.406;2023-11-19T10:41:29;13.60;99.90
69901;DHT22;57183;50.930;5.406;2023-11-19T10:43:56;13.60;99.90
69901;DHT22;57183;50.930;5.406;2023-11-19T10:46:22;13.70;99.90
69901;DHT22;57183;50.930;5.406;2023-11-19T10:48:49;13.70;99.90
69901;DHT22;57183;50.930;5.406;2023-11-19T10:51:19;13.60;99.90
69901;DHT22;57183;50.930;5.406;2023-11-19T10:53:49;13.50;99.90
69901;DHT22;57183;50.930;5.406;2023-11-19T10:56:16;13.40;99.90
69901;DHT22;57183;50.930;5.406;2023-11-19T10:58:45;13.50;99.90
69901;DHT22;57183;50.930;5.406;2023-11-19T11:01:20;13.60;99.90
69901;DHT22;57183;50.930;5.406;2023-11-19T11:03:51;13.70;99.90
69901;DHT22;57183;50.930;5.406;2023-11-19T11:06:22;13.80;99.90
69901;DHT22;57183;50.930;5.406;2023-11-19T11:08:48;14.00;99.90
69901;DHT22;57183;50.930;5.406;2023-11-19T11:11:16;14.00;99.90
69901;DHT22;57183;50.930;5.406;2023-11-19T11:13:47;14.10;99.90
69901;DHT22;57183;50.930;5.406;2023-11-19T11:16:15;14.20;99.90
69901;DHT22;57183;50.930;5.406;2023-11-19T11:18:45;14.20;99.90
69901;DHT22;57183;50.930;5.406;2023-11-19T11:21:15;14.10;99.90
69901;DHT22;57183;50.930;5.406;2023-11-19T11:29:57;14.00;99.90
69901;DHT22;57183;50.930;5.406;2023-11-19T11:32:38;14.00;99.90
69901;DHT22;57183;50.930;5.406;2023-11-19T11:38:10;14.00;99.90
69901;DHT22;57183;50.930;5.406;2023-11-19T11:40:36;14.00;99.90
69901;DHT22;57183;50.930;5.406;2023-11-19T11:43:03;14.00;99.90
69901;DHT22;57183;50.930;5.406;2023-11-19T11:45:38;13.80;99.90
69901;DHT22;57183;50.930;5.406;2023-11-19T11:48:06;13.70;99.90
69901;DHT22;57183;50.930;5.406;2023-11-19T11:50:34;13.50;99.90
69901;DHT22;57183;50.930;5.406;2023-11-19T11:55:52;13.10;99.90
69901;DHT22;57183;50.930;5.406;2023-11-19T11:58:29;13.00;99.90
69901;DHT22;57183;50.930;5.406;2023-11-19T12:01:00;13.00;99.90
69901;DHT22;57183;50.930;5.406;2023-11-19T12:03:30;13.00;99.90
69901;DHT22;57183;50.930;5.406;2023-11-19T12:05:57;13.00;99.90
69901;DHT22;57183;50.930;5.406;2023-11-19T12:08:28;13.10;99.90
69901;DHT22;57183;50.930;5.406;2023-11-19T12:10:56;13.10;99.90
69901;DHT22;57183;50.930;5.406;2023-11-19T12:13:46;13.10;99.90
69901;DHT22;57183;50.930;5.406;2023-11-19T12:16:13;13.30;99.90
69901;DHT22;57183;50.930;5.406;2023-11-19T12:18:40;13.40;99.90
69901;DHT22;57183;50.930;5.406;2023-11-19T12:21:06;13.40;99.90
69901;DHT22;57183;50.930;5.406;2023-11-19T12:23:35;13.50;99.90
69901;DHT22;57183;50.930;5.406;2023-11-19T12:26:04;13.70;99.90
69901;DHT22;57183;50.930;5.406;2023-11-19T12:28:30;13.70;99.90
69901;DHT22;57183;50.930;5.406;2023-11-19T12:31:08;13.70;99.90
69901;DHT22;57183;50.930;5.406;2023-11-19T12:33:40;13.80;99.90
69901;DHT22;57183;50.930;5.406;2023-11-19T12:36:06;13.90;99.90
69901;DHT22;57183;50.930;5.406;2023-11-19T12:38:32;13.90;99.90
69901;DHT22;57183;50.930;5.406;2023-11-19T12:41:10;13.90;99.90
69901;DHT22;57183;50.930;5.406;2023-11-19T12:43:37;14.00;99.90
69901;DHT22;57183;50.930;5.406;2023-11-19T12:46:22;14.10;99.90
69901;DHT22;57183;50.930;5.406;2023-11-19T12:48:53;14.20;99.90
69901;DHT22;57183;50.930;5.406;2023-11-19T12:51:19;14.20;99.90
69901;DHT22;57183;50.930;5.406;2023-11-19T12:53:52;14.20;99.90
69901;DHT22;57183;50.930;5.406;2023-11-19T12:56:23;14.00;99.90
69901;DHT22;57183;50.930;5.406;2023-11-19T12:58:50;14.00;99.90
69901;DHT22;57183;50.930;5.406;2023-11-19T13:01:17;13.90;99.90
69901;DHT22;57183;50.930;5.406;2023-11-19T13:03:44;14.00;99.90
69901;DHT22;57183;50.930;5.406;2023-11-19T13:06:12;14.00;99.90
69901;DHT22;57183;50.930;5.406;2023-11-19T13:08:40;14.00;99.90
69901;DHT22;57183;50.930;5.406;2023-11-19T13:11:06;13.90;99.90
69901;DHT22;57183;50.930;5.406;2023-11-19T13:13:54;13.90;99.90
69901;DHT22;57183;50.930;5.406;2023-11-19T13:16:20;13.80;99.90
69901;DHT22;57183;50.930;5.406;2023-11-19T13:18:49;13.70;99.90
69901;DHT22;57183;50.930;5.406;2023-11-19T13:21:15;13.70;99.90
69901;DHT22;57183;50.930;5.406;2023-11-19T13:23:41;13.70;99.90
69901;DHT22;57183;50.930;5.406;2023-11-19T13:26:08;13.70;99.90
69901;DHT22;57183;50.930;5.406;2023-11-19T13:28:37;13.70;99.90
69901;DHT22;57183;50.930;5.406;2023-11-19T13:31:06;13.70;99.90
69901;DHT22;57183;50.930;5.406;2023-11-19T13:33:33;13.60;99.90
69901;DHT22;57183;50.930;5.406;2023-11-19T13:35:59;13.50;99.90
69901;DHT22;57183;50.930;5.406;2023-11-19T13:38:31;13.40;99.90
69901;DHT22;57183;50.930;5.406;2023-11-19T13:40:58;13.40;99.90
69901;DHT22;57183;50.930;5.406;2023-11-19T13:43:26;13.50;99.90
69901;DHT22;57183;50.930;5.406;2023-11-19T13:45:54;13.50;99.90
69901;DHT22;57183;50.930;5.406;2023-11-19T13:48:20;13.60;99.90
69901;DHT22;57183;50.930;5.406;2023-11-19T13:50:46;13.60;99.90
69901;DHT22;57183;50.930;5.406;2023-11-19T13:53:14;13.60;99.90
69901;DHT22;57183;50.930;5.406;2023-11-19T13:55:41;13.70;99.90
69901;DHT22;57183;50.930;5.406;2023-11-19T13:58:07;13.70;99.90
69901;DHT22;57183;50.930;5.406;2023-11-19T14:00:32;13.80;99.90
69901;DHT22;57183;50.930;5.406;2023-11-19T14:02:59;13.80;99.90
69901;DHT22;57183;50.930;5.406;2023-11-19T14:05:25;13.80;99.90
69901;DHT22;57183;50.930;5.406;2023-11-19T14:07:55;13.70;99.90
69901;DHT22;57183;50.930;5.406;2023-11-19T14:10:22;13.70;99.90
69901;DHT22;57183;50.930;5.406;2023-11-19T14:12:48;13.60;99.90
69901;DHT22;57183;50.930;5.406;2023-11-19T14:15:15;13.50;99.90
69901;DHT22;57183;50.930;5.406;2023-11-19T14:17:43;13.30;99.90
69901;DHT22;57183;50.930;5.406;2023-11-19T14:20:09;13.20;99.90
69901;DHT22;57183;50.930;5.406;2023-11-19T14:22:43;13.20;99.90
69901;DHT22;57183;50.930;5.406;2023-11-19T14:25:10;13.20;99.90
69901;DHT22;57183;50.930;5.406;2023-11-19T14:27:37;13.20;99.90
69901;DHT22;57183;50.930;5.406;2023-11-19T14:30:05;13.20;99.90
69901;DHT22;57183;50.930;5.406;2023-11-19T14:32:41;13.10;99.90
69901;DHT22;57183;50.930;5.406;2023-11-19T14:35:12;13.00;99.90
69901;DHT22;57183;50.930;5.406;2023-11-19T14:37:41;13.00;99.90
69901;DHT22;57183;50.930;5.406;2023-11-19T14:40:07;13.10;99.90
69901;DHT22;57183;50.930;5.406;2023-11-19T14:42:35;13.00;99.90
69901;DHT22;57183;50.930;5.406;2023-11-19T14:45:01;13.00;99.90
69901;DHT22;57183;50.930;5.406;2023-11-19T14:47:27;13.10;99.90
69901;DHT22;57183;50.930;5.406;2023-11-19T14:49:53;13.10;99.90
69901;DHT22;57183;50.930;5.406;2023-11-19T14:52:18;13.10;99.90
69901;DHT22;57183;50.930;5.406;2023-11-19T14:54:44;13.10;99.90
69901;DHT22;57183;50.930;5.406;2023-11-19T14:57:10;13.20;99.90
69901;DHT22;57183;50.930;5.406;2023-11-19T14:59:37;13.20;99.90
69901;DHT22;57183;50.930;5.406;2023-11-19T15:02:03;13.10;99.90
69901;DHT22;57183;50.930;5.406;2023-11-19T15:04:29;13.20;99.90
69901;DHT22;57183;50.930;5.406;2023-11-19T15:06:59;13.20;99.90
69901;DHT22;57183;50.930;5.406;2023-11-19T15:09:25;13.20;99.90
69901;DHT22;57183;50.930;5.406;2023-11-19T15:11:53;13.30;99.90
69901;DHT22;57183;50.930;5.406;2023-11-19T15:14:19;13.20;99.90
69901;DHT22;57183;50.930;5.406;2023-11-19T15:16:46;13.20;99.90
69901;DHT22;57183;50.930;5.406;2023-11-19T15:19:13;13.20;99.90
69901;DHT22;57183;50.930;5.406;2023-11-19T15:21:40;13.20;99.90
69901;DHT22;57183;50.930;5.406;2023-11-19T15:24:08;13.20;99.90
69901;DHT22;57183;50.930;5.406;2023-11-19T15:26:35;13.20;99.90
69901;DHT22;57183;50.930;5.406;2023-11-19T15:29:04;13.20;99.90
69901;DHT22;57183;50.930;5.406;2023-11-19T15:31:31;13.20;99.90
69901;DHT22;57183;50.930;5.406;2023-11-19T15:33:57;13.20;99.90
69901;DHT22;57183;50.930;5.406;2023-11-19T15:36:23;13.20;99.90
69901;DHT22;57183;50.930;5.406;2023-11-19T15:38:49;13.10;99.90
69901;DHT22;57183;50.930;5.406;2023-11-19T15:41:15;13.10;99.90
69901;DHT22;57183;50.930;5.406;2023-11-19T15:43:42;13.20;99.90
69901;DHT22;57183;50.930;5.406;2023-11-19T15:46:08;13.10;99.90